Kuala Dungun, Malaysia
Current Conditions -  °F | °C
As of 12:00 PM on Friday 28 Nov 2014 (Local Time) from WMKN Reporting Station
Broken Clouds Broken Clouds  
Wind Chill: 82°   Ceiling: 2200
Heat Index: 89°   Visibility: 6mi
Dew Point: 75°   Wind: 7mph
Humidity: 79%   Direction: 80°E
Pressure: 29.83"   Gusts: NA
Location:  4.78°N, 103.43°E
Report Text: WMKN 280400Z 08006KT 9999 FEW010 BKN022 BKN250 28/24 Q1010
Loading
Personal Weather Stations






























Interactive Weather Map New forecast layout! Learn more

10-Day Weather Forecast

Advertisements
Track Severe Weather on mobile